Time;durP1;ratioP1;P1;durP2;ratioP2;P2;SDS_P1;SDS_P2;PMS_P1;PMS_P2;Temp;Humidity;BMP_temperature;BMP_pressure;BME280_temperature;BME280_humidity;BME280_pressure;Samples;Min_cycle;Max_cycle;Signal;HPM_P1;HPM_P2
2022/08/28 00:00:50;;;;;;;4.70;4.03;;;22.60;85.60;;;;;;5015003;28;20041;-61
2022/08/28 00:03:15;;;;;;;4.57;4.18;;;22.60;85.60;;;;;;5032991;28;20048;-62
2022/08/28 00:05:41;;;;;;;5.50;4.30;;;22.50;85.50;;;;;;5028815;28;20044;-61
2022/08/28 00:08:08;;;;;;;4.75;4.22;;;22.50;85.60;;;;;;5028269;28;20139;-62
2022/08/28 00:10:33;;;;;;;5.13;4.63;;;22.50;85.80;;;;;;5031575;28;20025;-62
2022/08/28 00:12:59;;;;;;;4.10;3.78;;;22.50;85.80;;;;;;5036509;28;20048;-62
2022/08/28 00:15:34;;;;;;;5.25;4.47;;;22.50;85.80;;;;;;5017564;28;20118;-63
2022/08/28 00:17:59;;;;;;;5.35;4.30;;;22.50;86.00;;;;;;5009404;28;20025;-62
2022/08/28 00:20:25;;;;;;;5.03;4.53;;;22.50;86.10;;;;;;5032887;28;20028;-61
2022/08/28 00:22:51;;;;;;;4.95;4.40;;;22.40;86.20;;;;;;5015100;28;20021;-62
2022/08/28 00:25:18;;;;;;;4.97;4.47;;;22.40;86.30;;;;;;5015074;28;20044;-62
2022/08/28 00:27:52;;;;;;;6.30;4.50;;;22.40;86.40;;;;;;5020681;28;20041;-62
2022/08/28 00:30:23;;;;;;;5.15;4.35;;;22.40;86.40;;;;;;5033011;28;20039;-62
2022/08/28 00:32:49;;;;;;;5.97;4.90;;;22.40;86.50;;;;;;5014107;28;20075;-62
2022/08/28 00:35:16;;;;;;;7.03;4.57;;;22.40;86.50;;;;;;5032146;28;20104;-61
2022/08/28 00:37:42;;;;;;;4.50;4.10;;;22.30;86.50;;;;;;5033423;28;20374;-63
2022/08/28 00:40:08;;;;;;;5.95;4.32;;;22.30;86.70;;;;;;5030790;28;20025;-63
2022/08/28 00:42:34;;;;;;;4.95;4.45;;;22.30;86.80;;;;;;5027854;28;20052;-62
2022/08/28 00:45:00;;;;;;;6.50;4.30;;;22.30;87.00;;;;;;5032272;28;20029;-62
2022/08/28 00:47:27;;;;;;;4.72;4.22;;;22.20;87.00;;;;;;5011053;28;20091;-62
2022/08/28 00:49:54;;;;;;;5.90;4.25;;;22.20;87.20;;;;;;5029642;28;20033;-61
2022/08/28 00:52:21;;;;;;;5.05;4.47;;;22.20;87.20;;;;;;5016940;28;20086;-62
2022/08/28 00:54:49;;;;;;;4.53;4.13;;;22.20;87.20;;;;;;5017408;28;20627;-62
2022/08/28 00:57:18;;;;;;;6.38;4.65;;;22.20;87.20;;;;;;5035571;28;20039;-62
2022/08/28 00:59:43;;;;;;;5.47;4.50;;;22.20;87.30;;;;;;5016932;28;20028;-62
2022/08/28 01:02:10;;;;;;;4.78;4.38;;;22.20;87.40;;;;;;5015048;28;20029;-62
2022/08/28 01:04:35;;;;;;;4.80;4.30;;;22.10;87.40;;;;;;5034830;28;20032;-61
2022/08/28 01:07:04;;;;;;;5.07;4.57;;;22.10;87.50;;;;;;5027822;28;20026;-62
2022/08/28 01:09:30;;;;;;;4.57;4.03;;;22.10;87.50;;;;;;5016366;28;20025;-62
2022/08/28 01:12:00;;;;;;;5.88;4.40;;;22.10;87.60;;;;;;5013800;28;20087;-62
2022/08/28 01:14:27;;;;;;;5.35;4.55;;;22.10;87.70;;;;;;5016692;28;20065;-62
2022/08/28 01:16:54;;;;;;;5.05;4.20;;;22.10;87.70;;;;;;5017238;28;20786;-62
2022/08/28 01:19:30;;;;;;;5.45;4.57;;;22.00;87.80;;;;;;5030939;28;20017;-62
2022/08/28 01:22:01;;;;;;;6.18;4.60;;;22.10;87.80;;;;;;5032107;28;20521;-62
2022/08/28 01:24:26;;;;;;;6.05;4.80;;;22.00;87.80;;;;;;5013566;28;20045;-64
2022/08/28 01:26:52;;;;;;;5.07;4.60;;;22.00;88.00;;;;;;5030278;28;20721;-62
2022/08/28 01:29:17;;;;;;;5.18;4.68;;;22.00;88.10;;;;;;5030048;28;20072;-62
2022/08/28 01:31:43;;;;;;;5.05;4.53;;;21.90;88.20;;;;;;5001350;28;20090;-62
2022/08/28 01:34:10;;;;;;;6.50;4.68;;;21.90;88.40;;;;;;5031189;28;20088;-62
2022/08/28 01:36:36;;;;;;;5.32;4.13;;;21.90;88.50;;;;;;5018205;28;20033;-62
2022/08/28 01:39:07;;;;;;;5.43;4.82;;;21.90;88.50;;;;;;5019439;28;21799;-61
2022/08/28 01:41:34;;;;;;;5.72;5.13;;;21.90;88.70;;;;;;5012683;28;20366;-62
2022/08/28 01:43:59;;;;;;;5.30;4.75;;;21.90;88.60;;;;;;5034320;28;20387;-61
2022/08/28 01:46:25;;;;;;;7.28;4.85;;;21.90;88.60;;;;;;5034384;28;20040;-62
2022/08/28 01:48:50;;;;;;;5.45;4.97;;;21.90;88.60;;;;;;5032518;28;20460;-61
2022/08/28 01:51:16;;;;;;;4.82;4.32;;;21.90;88.70;;;;;;5032300;28;20033;-62
2022/08/28 01:53:42;;;;;;;4.93;4.50;;;21.90;88.70;;;;;;5001855;28;20035;-61
2022/08/28 01:56:10;;;;;;;5.57;4.80;;;21.90;88.80;;;;;;5030310;28;20065;-61
2022/08/28 01:58:35;;;;;;;6.20;5.05;;;21.90;88.90;;;;;;5029230;28;20042;-62
2022/08/28 02:01:01;;;;;;;5.15;4.57;;;21.80;89.20;;;;;;5033789;28;20036;-61
2022/08/28 02:03:26;;;;;;;4.82;4.43;;;21.80;89.50;;;;;;5031559;28;20025;-62
2022/08/28 02:05:52;;;;;;;5.35;4.68;;;21.80;89.60;;;;;;5034575;28;20525;-62
2022/08/28 02:08:18;;;;;;;5.50;4.95;;;21.80;89.60;;;;;;5030645;28;20029;-62
2022/08/28 02:10:43;;;;;;;5.88;4.57;;;21.80;89.50;;;;;;5030817;28;20033;-61
2022/08/28 02:13:10;;;;;;;6.75;5.35;;;21.80;89.60;;;;;;5033839;28;20021;-62
2022/08/28 02:15:36;;;;;;;5.95;5.45;;;21.80;89.60;;;;;;5010570;28;20120;-62
2022/08/28 02:18:01;;;;;;;7.13;5.35;;;21.80;89.60;;;;;;5030518;28;20028;-62
2022/08/28 02:20:27;;;;;;;5.10;4.70;;;21.80;89.60;;;;;;5030045;28;20029;-62
2022/08/28 02:22:54;;;;;;;5.32;4.82;;;21.80;89.70;;;;;;5032050;28;21602;-62
2022/08/28 02:25:20;;;;;;;5.95;4.95;;;21.80;89.70;;;;;;5031505;28;20032;-61
2022/08/28 02:27:45;;;;;;;5.72;5.05;;;21.70;89.80;;;;;;5032093;28;20636;-62
2022/08/28 02:30:12;;;;;;;5.93;5.32;;;21.70;89.70;;;;;;5030046;28;20042;-61
2022/08/28 02:32:37;;;;;;;5.60;5.10;;;21.70;89.90;;;;;;5012494;28;20034;-61
2022/08/28 02:35:04;;;;;;;6.68;5.38;;;21.70;89.90;;;;;;5025542;28;20072;-61
2022/08/28 02:37:30;;;;;;;6.30;5.50;;;21.70;90.00;;;;;;5004055;28;20429;-61
2022/08/28 02:39:57;;;;;;;6.10;5.15;;;21.70;90.00;;;;;;5028228;28;20067;-62
2022/08/28 02:42:23;;;;;;;5.40;4.90;;;21.70;90.10;;;;;;5027578;28;20055;-61
2022/08/28 02:44:48;;;;;;;6.05;5.18;;;21.60;90.10;;;;;;5029808;28;20045;-61
2022/08/28 02:47:14;;;;;;;5.47;4.97;;;21.60;90.10;;;;;;5030132;28;20443;-62
2022/08/28 02:49:40;;;;;;;5.47;5.00;;;21.60;90.20;;;;;;5034067;28;20053;-61
2022/08/28 02:52:06;;;;;;;5.93;5.35;;;21.60;90.20;;;;;;5022220;28;20052;-62
2022/08/28 02:54:31;;;;;;;6.95;5.68;;;21.60;90.30;;;;;;5029113;28;20021;-62
2022/08/28 02:56:57;;;;;;;6.22;5.63;;;21.60;90.30;;;;;;5026020;28;20480;-62
2022/08/28 02:59:22;;;;;;;6.75;6.05;;;21.60;90.30;;;;;;5032519;28;20400;-64
2022/08/28 03:01:48;;;;;;;7.03;6.32;;;21.60;90.30;;;;;;5033849;28;20055;-61
2022/08/28 03:04:14;;;;;;;9.02;6.47;;;21.60;90.40;;;;;;5014733;28;20521;-62
2022/08/28 03:06:39;;;;;;;6.93;6.22;;;21.50;90.50;;;;;;5029874;28;20041;-62
2022/08/28 03:09:05;;;;;;;7.43;6.57;;;21.60;90.50;;;;;;5031861;28;20033;-62
2022/08/28 03:11:30;;;;;;;6.40;5.80;;;21.50;90.50;;;;;;5029483;28;20037;-62
2022/08/28 03:13:56;;;;;;;7.80;6.03;;;21.60;90.40;;;;;;5005698;28;20072;-62
2022/08/28 03:16:23;;;;;;;6.97;6.30;;;21.50;90.50;;;;;;5008193;28;20060;-62
2022/08/28 03:18:49;;;;;;;6.60;6.00;;;21.50;90.50;;;;;;5005308;28;20030;-62
2022/08/28 03:21:14;;;;;;;6.05;5.45;;;21.60;90.50;;;;;;5017866;28;20049;-61
2022/08/28 03:23:40;;;;;;;6.68;5.97;;;21.60;90.60;;;;;;5013215;28;20485;-61
2022/08/28 03:26:08;;;;;;;8.48;5.95;;;21.50;90.50;;;;;;5015268;28;20564;-62
2022/08/28 03:28:42;;;;;;;6.30;5.70;;;21.50;90.50;;;;;;4995220;28;20096;-62
2022/08/28 03:31:08;;;;;;;10.23;6.20;;;21.50;90.50;;;;;;5031214;28;20079;-62
2022/08/28 03:33:34;;;;;;;12.57;6.25;;;21.50;90.60;;;;;;5029036;28;20026;-62
2022/08/28 03:36:00;;;;;;;10.18;5.97;;;21.50;90.60;;;;;;5030459;28;20037;-62
2022/08/28 03:38:26;;;;;;;11.80;6.20;;;21.50;90.60;;;;;;5032923;28;20025;-62
2022/08/28 03:40:52;;;;;;;14.75;6.18;;;21.50;90.60;;;;;;5032489;28;20040;-61
2022/08/28 03:43:19;;;;;;;12.73;5.82;;;21.50;90.60;;;;;;5032724;28;20045;-62
2022/08/28 03:45:58;;;;;;;8.85;5.38;;;21.50;90.60;;;;;;5020157;28;20050;-61
2022/08/28 03:48:25;;;;;;;17.48;6.38;;;21.50;90.60;;;;;;5002056;28;20500;-61
2022/08/28 03:50:53;;;;;;;11.20;5.60;;;21.40;90.60;;;;;;5035620;28;20155;-61
2022/08/28 03:53:20;;;;;;;9.15;6.03;;;21.40;90.60;;;;;;5018865;28;20156;-62
2022/08/28 03:55:46;;;;;;;11.45;6.40;;;21.40;90.60;;;;;;5034771;28;20369;-62
2022/08/28 03:58:12;;;;;;;12.63;5.85;;;21.40;90.60;;;;;;5037675;28;20037;-61
2022/08/28 04:00:40;;;;;;;12.85;6.30;;;21.40;90.70;;;;;;5015703;28;20025;-62
2022/08/28 04:03:06;;;;;;;9.10;5.40;;;21.40;90.80;;;;;;5035628;28;20029;-62
2022/08/28 04:05:33;;;;;;;11.45;5.90;;;21.40;90.80;;;;;;5036781;28;20513;-62
2022/08/28 04:08:02;;;;;;;9.70;6.15;;;21.40;90.90;;;;;;5020410;28;20128;-62
2022/08/28 04:10:28;;;;;;;11.07;5.70;;;21.40;90.80;;;;;;5029160;28;20052;-62
2022/08/28 04:12:54;;;;;;;10.30;5.47;;;21.30;90.70;;;;;;5034293;28;20461;-62
2022/08/28 04:15:20;;;;;;;6.45;5.82;;;21.40;90.80;;;;;;5037716;28;20200;-64
2022/08/28 04:17:45;;;;;;;8.15;5.80;;;21.30;90.90;;;;;;5036184;28;20029;-64
2022/08/28 04:20:11;;;;;;;8.35;5.68;;;21.40;90.90;;;;;;5032503;28;20036;-62
2022/08/28 04:22:38;;;;;;;10.50;5.82;;;21.30;90.90;;;;;;5006666;28;20029;-62
2022/08/28 04:25:04;;;;;;;8.00;5.55;;;21.30;90.90;;;;;;5002303;28;20156;-65
2022/08/28 04:27:30;;;;;;;8.93;5.78;;;21.30;91.00;;;;;;5033239;28;20037;-64
2022/08/28 04:29:56;;;;;;;6.32;5.47;;;21.30;91.00;;;;;;5004150;28;20126;-62
2022/08/28 04:32:22;;;;;;;7.20;5.80;;;21.30;91.00;;;;;;5029901;28;20610;-63
2022/08/28 04:34:48;;;;;;;9.23;6.28;;;21.30;91.00;;;;;;5034355;28;20540;-65
2022/08/28 04:37:14;;;;;;;28.38;7.70;;;21.30;91.00;;;;;;5036831;28;20025;-63
2022/08/28 04:39:40;;;;;;;32.67;9.23;;;21.30;91.00;;;;;;5033528;28;20063;-62
2022/08/28 04:42:05;;;;;;;27.17;7.60;;;21.30;91.00;;;;;;5033913;28;20112;-63
2022/08/28 04:44:31;;;;;;;21.90;6.97;;;21.30;91.00;;;;;;5034865;28;20064;-61
2022/08/28 04:46:56;;;;;;;21.80;7.07;;;21.30;91.00;;;;;;5028244;28;20020;-62
2022/08/28 04:49:22;;;;;;;21.48;7.18;;;21.30;91.00;;;;;;5034393;28;20039;-62
2022/08/28 04:51:47;;;;;;;18.65;6.68;;;21.30;91.00;;;;;;5029134;28;22256;-62
2022/08/28 04:54:13;;;;;;;14.48;7.05;;;21.30;91.10;;;;;;5018896;28;20402;-62
2022/08/28 04:56:38;;;;;;;22.42;7.18;;;21.30;91.10;;;;;;5035205;28;20036;-64
2022/08/28 04:59:04;;;;;;;24.52;7.70;;;21.30;91.20;;;;;;5017878;28;20045;-62
2022/08/28 05:01:30;;;;;;;19.48;6.95;;;21.30;91.20;;;;;;5028734;28;20151;-62
2022/08/28 05:03:57;;;;;;;21.63;7.28;;;21.30;91.10;;;;;;5035555;28;20021;-62
2022/08/28 05:06:25;;;;;;;18.20;7.13;;;21.30;91.10;;;;;;5006001;28;20031;-62
2022/08/28 05:08:51;;;;;;;25.13;7.88;;;21.50;91.20;;;;;;5020353;28;20055;-62
2022/08/28 05:11:18;;;;;;;13.65;6.63;;;21.30;91.20;;;;;;5036961;28;20022;-62
2022/08/28 05:13:44;;;;;;;17.58;6.55;;;21.30;91.20;;;;;;5036329;28;20029;-62
2022/08/28 05:16:10;;;;;;;31.98;7.65;;;21.30;91.20;;;;;;5016676;28;20048;-62
2022/08/28 05:18:36;;;;;;;28.38;7.75;;;21.30;91.20;;;;;;5013784;28;20037;-62
2022/08/28 05:21:01;;;;;;;38.00;8.27;;;21.30;91.20;;;;;;5033556;28;20048;-62
2022/08/28 05:23:27;;;;;;;24.48;7.55;;;21.30;91.20;;;;;;5034769;28;20056;-62
2022/08/28 05:25:53;;;;;;;29.27;7.78;;;21.30;91.30;;;;;;5019142;28;20033;-61
2022/08/28 05:28:18;;;;;;;25.58;8.23;;;21.30;91.20;;;;;;5034636;28;20033;-62
2022/08/28 05:30:44;;;;;;;43.17;10.00;;;21.30;91.30;;;;;;5035009;28;20025;-61
2022/08/28 05:33:10;;;;;;;35.42;9.27;;;21.30;91.30;;;;;;5031101;28;20096;-62
2022/08/28 05:35:37;;;;;;;38.17;8.52;;;21.40;91.30;;;;;;5034260;28;20352;-62
2022/08/28 05:38:03;;;;;;;26.02;8.38;;;21.40;91.20;;;;;;5034660;28;20024;-61
2022/08/28 05:40:28;;;;;;;34.03;8.32;;;21.40;91.20;;;;;;5034893;28;20480;-62
2022/08/28 05:42:54;;;;;;;23.98;8.68;;;21.40;91.20;;;;;;5033609;28;20038;-62
2022/08/28 05:45:21;;;;;;;36.05;9.05;;;21.40;91.20;;;;;;5014992;28;20075;-62
2022/08/28 05:47:47;;;;;;;28.30;8.75;;;21.30;91.20;;;;;;5016185;28;20037;-61
2022/08/28 05:50:12;;;;;;;33.08;8.88;;;21.40;91.40;;;;;;5021245;28;20036;-62
2022/08/28 05:52:41;;;;;;;29.35;8.32;;;21.40;91.40;;;;;;5029834;28;20193;-62
2022/08/28 05:55:07;;;;;;;29.77;8.35;;;21.40;91.40;;;;;;5030844;28;20029;-61
2022/08/28 05:57:33;;;;;;;41.53;8.98;;;21.40;91.40;;;;;;5033054;28;20029;-62
2022/08/28 05:59:59;;;;;;;30.15;9.27;;;21.40;91.40;;;;;;5018780;28;20029;-62
2022/08/28 06:02:25;;;;;;;35.55;8.75;;;21.40;91.50;;;;;;5032239;28;20056;-62
2022/08/28 06:04:52;;;;;;;25.42;8.75;;;21.40;91.50;;;;;;5035728;28;20024;-62
2022/08/28 06:07:18;;;;;;;28.25;8.88;;;21.40;91.50;;;;;;5032515;28;20060;-62
2022/08/28 06:09:43;;;;;;;36.55;8.73;;;21.40;91.40;;;;;;5031776;28;20545;-61
2022/08/28 06:12:09;;;;;;;40.00;8.75;;;21.40;91.50;;;;;;5033924;28;20052;-62
2022/08/28 06:14:34;;;;;;;36.15;9.13;;;21.40;91.50;;;;;;5035183;28;20412;-62
2022/08/28 06:17:00;;;;;;;28.98;9.10;;;21.40;91.60;;;;;;5017432;28;20112;-63
2022/08/28 06:19:27;;;;;;;33.33;9.10;;;21.40;91.60;;;;;;5019348;28;20025;-61
2022/08/28 06:21:57;;;;;;;26.48;9.20;;;21.40;91.60;;;;;;5031589;28;20180;-61
2022/08/28 06:24:24;;;;;;;24.20;9.00;;;21.40;91.60;;;;;;5020281;28;20040;-61
2022/08/28 06:26:50;;;;;;;23.83;9.43;;;21.40;91.60;;;;;;5033282;28;20029;-61
2022/08/28 06:29:18;;;;;;;27.65;9.10;;;21.40;91.70;;;;;;5032957;28;20025;-61
2022/08/28 06:31:43;;;;;;;24.67;9.32;;;21.40;91.80;;;;;;5034408;28;20033;-61
2022/08/28 06:34:09;;;;;;;21.35;9.07;;;21.50;91.80;;;;;;5017198;28;20063;-61
2022/08/28 06:36:37;;;;;;;26.70;9.63;;;21.40;91.90;;;;;;5032828;28;20071;-61
2022/08/28 06:39:04;;;;;;;20.27;9.27;;;21.40;91.90;;;;;;5015201;28;20017;-62
2022/08/28 06:41:31;;;;;;;26.63;9.38;;;21.40;91.90;;;;;;5016217;28;20462;-64
2022/08/28 06:43:56;;;;;;;16.08;8.95;;;21.50;92.00;;;;;;5011890;28;20037;-61
2022/08/28 06:46:22;;;;;;;26.45;9.35;;;21.40;91.90;;;;;;5016021;28;20079;-62
2022/08/28 06:48:47;;;;;;;17.10;9.15;;;21.50;91.90;;;;;;5034198;28;20044;-65
2022/08/28 06:51:13;;;;;;;24.17;9.30;;;21.50;91.90;;;;;;5014598;28;20447;-67
2022/08/28 06:53:39;;;;;;;21.15;9.15;;;21.40;91.90;;;;;;5015673;28;20155;-64
2022/08/28 06:56:10;;;;;;;21.17;8.98;;;21.40;91.90;;;;;;5029979;28;20048;-62
2022/08/28 06:58:37;;;;;;;27.13;8.98;;;21.40;91.90;;;;;;5030258;28;20132;-62
2022/08/28 07:01:04;;;;;;;20.00;8.10;;;21.50;91.90;;;;;;4999088;28;20108;-62
2022/08/28 07:03:29;;;;;;;22.38;9.15;;;21.50;91.90;;;;;;5030238;28;20032;-62
2022/08/28 07:05:56;;;;;;;16.15;9.18;;;21.50;91.90;;;;;;5015904;28;20373;-62
2022/08/28 07:08:24;;;;;;;15.35;8.85;;;21.50;91.90;;;;;;5016870;28;20025;-61
2022/08/28 07:10:49;;;;;;;22.05;9.75;;;21.50;91.80;;;;;;5015130;28;20067;-62
2022/08/28 07:13:15;;;;;;;25.40;9.45;;;21.50;91.90;;;;;;5036915;28;20116;-62
2022/08/28 07:15:40;;;;;;;14.38;9.10;;;21.50;91.80;;;;;;5035853;28;20121;-62
2022/08/28 07:18:06;;;;;;;16.00;8.77;;;21.60;91.70;;;;;;5028422;28;20033;-62
2022/08/28 07:20:31;;;;;;;18.52;8.98;;;21.50;91.60;;;;;;5030478;28;20638;-62
2022/08/28 07:22:57;;;;;;;18.30;8.40;;;21.50;91.60;;;;;;5029558;28;20041;-61
2022/08/28 07:25:22;;;;;;;12.13;8.80;;;21.60;91.50;;;;;;5032145;28;20383;-62
2022/08/28 07:27:48;;;;;;;12.65;7.57;;;21.60;91.50;;;;;;5034678;28;20595;-62
2022/08/28 07:30:13;;;;;;;16.35;8.75;;;21.60;91.40;;;;;;5033092;28;21086;-62
2022/08/28 07:32:39;;;;;;;14.77;8.68;;;21.60;91.50;;;;;;5030199;28;20091;-62
2022/08/28 07:35:05;;;;;;;16.55;8.68;;;21.60;91.50;;;;;;5033784;28;20041;-62
2022/08/28 07:37:30;;;;;;;11.95;8.02;;;21.60;91.60;;;;;;5033492;28;20036;-62
2022/08/28 07:39:56;;;;;;;19.70;8.57;;;21.60;91.50;;;;;;5015640;28;20032;-62
2022/08/28 07:45:06;;;;;;;16.60;8.13;;;21.70;91.50;;;;;;5033431;28;20074;-62
2022/08/28 07:47:32;;;;;;;13.60;8.23;;;21.70;91.50;;;;;;5031163;28;20024;-62
2022/08/28 07:49:59;;;;;;;12.25;9.27;;;21.70;91.50;;;;;;5025609;28;20111;-62
2022/08/28 07:52:26;;;;;;;16.33;9.25;;;21.70;91.50;;;;;;5031624;28;20035;-62
2022/08/28 07:54:51;;;;;;;11.38;8.98;;;21.70;91.60;;;;;;5034884;28;20380;-62
2022/08/28 07:57:19;;;;;;;15.43;10.48;;;21.70;91.80;;;;;;5030225;28;20079;-62
2022/08/28 07:59:45;;;;;;;13.98;9.93;;;21.70;92.00;;;;;;5030396;28;20485;-61
2022/08/28 08:02:11;;;;;;;12.27;10.98;;;21.60;92.20;;;;;;5011361;28;20025;-61
2022/08/28 08:04:36;;;;;;;13.93;11.80;;;21.60;92.60;;;;;;5030479;28;20646;-62
2022/08/28 08:07:02;;;;;;;12.85;11.63;;;21.60;92.90;;;;;;5013086;28;20408;-63
2022/08/28 08:09:28;;;;;;;12.43;10.98;;;21.60;93.10;;;;;;5038391;28;20453;-63
2022/08/28 08:11:55;;;;;;;14.30;11.27;;;21.50;93.20;;;;;;5036489;28;20044;-62
2022/08/28 08:14:20;;;;;;;12.52;10.80;;;21.50;93.40;;;;;;5036203;28;20021;-62
2022/08/28 08:16:46;;;;;;;14.32;11.23;;;21.40;93.50;;;;;;5034979;28;20048;-62
2022/08/28 08:19:14;;;;;;;14.35;11.30;;;21.40;93.60;;;;;;5019404;28;20025;-63
2022/08/28 08:21:43;;;;;;;16.60;11.40;;;21.40;93.70;;;;;;5034681;28;20033;-62
2022/08/28 08:24:10;;;;;;;23.30;12.98;;;21.40;93.70;;;;;;5031860;28;20029;-62
2022/08/28 08:26:36;;;;;;;18.75;11.45;;;21.50;93.90;;;;;;5035810;28;20089;-63
2022/08/28 08:29:02;;;;;;;20.48;11.38;;;21.50;93.90;;;;;;5032662;28;20018;-62
2022/08/28 08:31:31;;;;;;;21.55;12.48;;;21.50;94.10;;;;;;5014779;28;20055;-62
2022/08/28 08:33:57;;;;;;;18.90;11.93;;;21.50;94.00;;;;;;5036362;28;20034;-62
2022/08/28 08:36:24;;;;;;;22.00;11.60;;;21.50;94.00;;;;;;5036373;28;20014;-62
2022/08/28 08:38:50;;;;;;;34.33;14.20;;;21.50;93.90;;;;;;5013027;28;20029;-62
2022/08/28 08:41:29;;;;;;;51.72;14.70;;;21.50;93.90;;;;;;5029606;28;20030;-64
2022/08/28 08:44:13;;;;;;;34.28;13.45;;;21.60;94.00;;;;;;5033343;28;20099;-63
2022/08/28 08:46:51;;;;;;;62.08;13.15;;;21.60;93.90;;;;;;5030676;28;20052;-63
2022/08/28 08:49:22;;;;;;;37.42;13.90;;;21.60;93.80;;;;;;5032605;28;20025;-62
2022/08/28 08:52:08;;;;;;;46.90;14.90;;;21.60;94.00;;;;;;5002657;28;20458;-63
2022/08/28 08:54:34;;;;;;;41.75;14.23;;;21.60;93.90;;;;;;5019341;28;20033;-63
2022/08/28 08:57:00;;;;;;;39.53;12.95;;;21.70;93.90;;;;;;5033314;28;20044;-63
2022/08/28 08:59:28;;;;;;;41.47;12.63;;;21.70;93.90;;;;;;5017213;28;20116;-63
2022/08/28 09:02:14;;;;;;;35.08;12.77;;;21.70;93.90;;;;;;5017974;28;20025;-62
2022/08/28 09:05:00;;;;;;;60.53;14.45;;;21.80;93.80;;;;;;5033102;28;20036;-63
2022/08/28 09:08:04;;;;;;;78.40;15.68;;;21.80;93.80;;;;;;5032626;28;20130;-62
2022/08/28 09:10:38;;;;;;;46.38;14.45;;;21.90;93.70;;;;;;4992719;28;20077;-63
2022/08/28 09:13:16;;;;;;;73.40;15.82;;;21.90;93.60;;;;;;4982620;28;20489;-62
2022/08/28 09:15:44;;;;;;;65.82;15.45;;;22.10;93.60;;;;;;5001656;28;20065;-62
2022/08/28 09:18:13;;;;;;;60.45;14.20;;;22.00;93.80;;;;;;5018582;28;20037;-63
2022/08/28 09:20:40;;;;;;;90.65;18.35;;;22.00;93.70;;;;;;5031397;28;20032;-62
2022/08/28 09:23:05;;;;;;;51.38;15.85;;;22.00;93.70;;;;;;5019523;28;20511;-62
2022/08/28 09:25:43;;;;;;;59.40;15.55;;;22.20;93.70;;;;;;5032118;28;20037;-62
2022/08/28 09:28:10;;;;;;;61.15;14.65;;;22.10;93.70;;;;;;5034897;28;20100;-63
2022/08/28 09:30:36;;;;;;;41.85;13.40;;;22.10;93.60;;;;;;5031932;28;20053;-62
2022/08/28 09:33:02;;;;;;;55.90;15.52;;;22.10;93.50;;;;;;5029592;28;20412;-63
2022/08/28 09:35:29;;;;;;;61.33;14.93;;;22.20;93.40;;;;;;5034317;28;20017;-63
2022/08/28 09:37:57;;;;;;;50.28;14.68;;;22.20;93.30;;;;;;5020839;28;20480;-62
2022/08/28 09:43:26;;;;;;;50.42;13.73;;;22.20;92.60;;;;;;5022784;28;20056;-63
2022/08/28 09:45:57;;;;;;;56.40;14.38;;;22.30;92.40;;;;;;5034589;28;20029;-63
2022/08/28 09:48:36;;;;;;;71.97;15.48;;;22.30;92.70;;;;;;5030999;28;20017;-63
2022/08/28 09:51:09;;;;;;;53.28;13.88;;;22.40;92.60;;;;;;5014098;28;20025;-63
2022/08/28 09:53:50;;;;;;;73.10;15.27;;;22.50;92.50;;;;;;5016426;28;20617;-63
2022/08/28 09:56:33;;;;;;;42.38;12.25;;;22.50;92.30;;;;;;5033862;28;20033;-63
2022/08/28 09:59:00;;;;;;;35.72;11.93;;;22.50;92.40;;;;;;5015576;28;20029;-63
2022/08/28 10:01:49;;;;;;;52.17;12.52;;;22.50;92.00;;;;;;5030985;28;20556;-62
2022/08/28 10:04:33;;;;;;;51.83;12.77;;;22.50;91.90;;;;;;5032129;28;20108;-63
2022/08/28 10:07:07;;;;;;;57.78;12.60;;;22.50;91.80;;;;;;5034309;28;20094;-62
2022/08/28 10:09:53;;;;;;;59.47;13.45;;;22.60;91.70;;;;;;5028534;28;20025;-62
2022/08/28 10:12:33;;;;;;;42.78;11.45;;;22.60;91.70;;;;;;5001303;28;20328;-63
2022/08/28 10:15:19;;;;;;;37.72;11.45;;;22.60;91.60;;;;;;5019134;28;20163;-62
2022/08/28 10:18:00;;;;;;;37.50;11.10;;;22.60;91.50;;;;;;5032024;28;20049;-62
2022/08/28 10:20:49;;;;;;;27.33;11.15;;;22.60;91.40;;;;;;5032756;28;20623;-62
2022/08/28 10:23:31;;;;;;;34.75;10.98;;;22.70;91.30;;;;;;5031426;28;20032;-62
2022/08/28 10:26:31;;;;;;;39.80;12.45;;;22.70;91.30;;;;;;5017533;28;20070;-63
2022/08/28 10:29:13;;;;;;;58.25;13.30;;;22.70;91.10;;;;;;5033755;28;20024;-62
2022/08/28 10:31:56;;;;;;;36.70;11.43;;;22.70;91.00;;;;;;5031733;28;20112;-62
2022/08/28 10:34:42;;;;;;;53.08;11.30;;;22.80;90.90;;;;;;5031123;28;20064;-63
2022/08/28 10:37:30;;;;;;;45.80;11.57;;;22.90;90.80;;;;;;5028174;28;20044;-62
2022/08/28 10:39:57;;;;;;;47.03;11.65;;;22.90;90.70;;;;;;5027265;28;20405;-62
2022/08/28 10:42:27;;;;;;;43.20;10.52;;;22.90;90.50;;;;;;5018451;28;20113;-62
2022/08/28 10:45:09;;;;;;;48.17;11.20;;;23.00;90.40;;;;;;5023182;28;20037;-62
2022/08/28 10:47:37;;;;;;;44.53;9.85;;;23.00;90.40;;;;;;5015029;28;20107;-62
2022/08/28 10:50:18;;;;;;;46.05;11.13;;;23.00;90.30;;;;;;5013499;28;20031;-63
2022/08/28 10:52:46;;;;;;;30.33;9.48;;;23.10;90.30;;;;;;5016896;28;20056;-62
2022/08/28 10:55:24;;;;;;;42.03;10.70;;;23.10;90.20;;;;;;5022019;28;20021;-62
2022/08/28 10:57:56;;;;;;;18.45;8.23;;;23.10;90.00;;;;;;5018800;28;20756;-62
2022/08/28 11:00:23;;;;;;;21.58;7.78;;;23.30;89.70;;;;;;5025284;28;20044;-63
2022/08/28 11:03:00;;;;;;;43.88;9.57;;;23.10;89.20;;;;;;5025957;28;20041;-62
2022/08/28 11:05:29;;;;;;;38.20;10.10;;;23.20;89.00;;;;;;5008121;28;20057;-63
2022/08/28 11:08:00;;;;;;;49.58;9.80;;;23.20;88.80;;;;;;5030254;28;21613;-63
2022/08/28 11:10:33;;;;;;;30.23;8.75;;;23.20;88.70;;;;;;5009626;28;20013;-62
2022/08/28 11:12:59;;;;;;;31.65;8.68;;;23.30;88.90;;;;;;5027598;28;20754;-62
2022/08/28 11:15:27;;;;;;;42.72;11.00;;;23.30;88.90;;;;;;5029803;28;20087;-63
2022/08/28 11:18:14;;;;;;;40.05;10.00;;;23.30;88.90;;;;;;5030028;28;20039;-63
2022/08/28 11:20:41;;;;;;;41.63;9.65;;;23.40;88.60;;;;;;5001450;28;20032;-63
2022/08/28 11:23:30;;;;;;;41.47;8.85;;;23.40;88.40;;;;;;5009758;28;20088;-63
2022/08/28 11:25:58;;;;;;;36.70;8.50;;;23.40;88.10;;;;;;5023951;28;20049;-63
2022/08/28 11:28:24;;;;;;;33.33;8.93;;;23.40;87.90;;;;;;5009571;28;20033;-63
2022/08/28 11:31:04;;;;;;;33.15;8.18;;;23.50;87.90;;;;;;5023922;28;20041;-63
2022/08/28 11:33:44;;;;;;;26.88;8.30;;;23.50;87.00;;;;;;5025966;28;20029;-63
2022/08/28 11:36:20;;;;;;;17.15;7.03;;;23.60;86.70;;;;;;5023275;28;20036;-63
2022/08/28 11:38:51;;;;;;;41.95;7.78;;;23.50;85.30;;;;;;5030900;28;20037;-63
2022/08/28 11:41:28;;;;;;;25.40;7.13;;;23.60;85.00;;;;;;5030698;28;20475;-63
2022/08/28 11:44:11;;;;;;;34.30;8.20;;;23.70;84.70;;;;;;5016205;28;20044;-63
2022/08/28 11:46:47;;;;;;;41.10;8.20;;;23.80;84.20;;;;;;5026937;28;20444;-63
2022/08/28 11:49:39;;;;;;;30.15;7.15;;;23.80;83.60;;;;;;5021356;28;20118;-63
2022/08/28 11:52:24;;;;;;;31.90;7.13;;;23.90;83.60;;;;;;5031021;28;20044;-63
2022/08/28 11:55:20;;;;;;;34.13;7.53;;;23.90;83.50;;;;;;5032457;28;20099;-62
2022/08/28 11:57:52;;;;;;;75.25;13.13;;;24.00;83.30;;;;;;5032223;28;20454;-62
2022/08/28 12:00:26;;;;;;;32.95;7.43;;;24.10;83.00;;;;;;5037363;28;20033;-63
2022/08/28 12:03:05;;;;;;;52.53;9.37;;;24.20;82.80;;;;;;5029355;28;20051;-63
2022/08/28 12:05:31;;;;;;;33.50;8.18;;;24.30;82.80;;;;;;5024782;28;20044;-63
2022/08/28 12:07:57;;;;;;;51.83;7.82;;;24.40;82.60;;;;;;5030527;28;20045;-64
2022/08/28 12:10:26;;;;;;;52.80;9.40;;;24.30;82.00;;;;;;5010988;28;20170;-64
2022/08/28 12:12:55;;;;;;;47.08;8.15;;;24.50;81.90;;;;;;5029734;28;20052;-64
2022/08/28 12:15:26;;;;;;;26.40;7.18;;;24.50;81.50;;;;;;5030517;28;20020;-63
2022/08/28 12:17:54;;;;;;;23.38;7.72;;;24.60;81.10;;;;;;5028315;28;20065;-62
2022/08/28 12:20:58;;;;;;;35.80;7.38;;;24.60;80.90;;;;;;5026215;28;20488;-62
2022/08/28 12:23:41;;;;;;;45.58;8.00;;;24.80;80.90;;;;;;5025136;28;20365;-63
2022/08/28 12:26:08;;;;;;;44.40;7.90;;;24.80;80.80;;;;;;5030507;28;20013;-64
2022/08/28 12:28:52;;;;;;;36.13;8.23;;;24.90;80.70;;;;;;5029773;28;20025;-64
2022/08/28 12:34:33;;;;;;;31.63;8.25;;;25.00;80.60;;;;;;5030187;28;20503;-64
2022/08/28 12:37:00;;;;;;;41.00;8.38;;;25.10;80.30;;;;;;5022708;28;20102;-62
2022/08/28 12:39:26;;;;;;;36.38;8.27;;;25.10;80.20;;;;;;5021546;28;20042;-62
2022/08/28 12:41:52;;;;;;;47.17;9.13;;;25.20;80.10;;;;;;5025574;28;20033;-63
2022/08/28 12:44:24;;;;;;;43.80;9.38;;;25.20;80.10;;;;;;5029791;28;20037;-63
2022/08/28 12:46:50;;;;;;;55.70;10.43;;;25.20;80.00;;;;;;5023170;28;20037;-63
2022/08/28 12:49:33;;;;;;;80.75;11.77;;;25.30;80.00;;;;;;5025583;28;20037;-63
2022/08/28 12:52:16;;;;;;;70.65;10.07;;;25.30;79.80;;;;;;5022627;28;20041;-62
2022/08/28 12:54:42;;;;;;;48.42;10.00;;;25.30;79.40;;;;;;5013758;28;20080;-63
2022/08/28 12:57:16;;;;;;;50.97;10.05;;;25.40;79.20;;;;;;5011269;28;20258;-63